createdAt,value
2022-11-11T00:01:35.286Z,9.06
2022-11-11T00:04:01.657Z,9.21
2022-11-11T00:06:28.140Z,8.55
2022-11-11T00:08:54.516Z,9.01
2022-11-11T00:11:20.938Z,9.06
2022-11-11T00:13:47.327Z,9.00
2022-11-11T00:16:18.840Z,9.08
2022-11-11T00:19:05.210Z,9.07
2022-11-11T00:22:11.168Z,9.10
2022-11-11T00:24:55.951Z,9.08
2022-11-11T00:27:22.341Z,9.10
2022-11-11T00:29:48.779Z,8.99
2022-11-11T00:32:24.297Z,4.52
2022-11-11T00:35:10.599Z,7.73
2022-11-11T00:37:37.109Z,8.62
2022-11-11T00:40:04.433Z,8.78
2022-11-11T00:42:30.990Z,8.89
2022-11-11T00:44:57.515Z,7.62
2022-11-11T00:47:42.675Z,8.57
2022-11-11T00:50:56.844Z,8.87
2022-11-11T00:53:28.587Z,8.84
2022-11-11T00:55:56.552Z,8.81
2022-11-11T00:58:24.102Z,8.85
2022-11-11T01:00:53.779Z,5.84
2022-11-11T01:03:21.246Z,8.22
2022-11-11T01:05:48.306Z,8.65
2022-11-11T01:08:14.913Z,8.73
2022-11-11T01:10:44.827Z,6.32
2022-11-11T01:13:21.620Z,8.27
2022-11-11T01:15:51.159Z,4.12
2022-11-11T01:18:22.084Z,7.55
2022-11-11T01:21:01.547Z,7.77
2022-11-11T01:23:29.403Z,6.76
2022-11-11T01:26:20.662Z,5.99
2022-11-11T01:28:53.885Z,7.64
2022-11-11T01:31:22.471Z,8.22
2022-11-11T01:33:49.609Z,8.42
2022-11-11T01:36:18.908Z,7.14
2022-11-11T01:38:49.010Z,7.84
2022-11-11T01:41:34.031Z,8.31
2022-11-11T01:44:12.978Z,8.48
2022-11-11T01:47:01.743Z,8.46
2022-11-11T01:49:30.882Z,8.52
2022-11-11T01:52:07.484Z,8.41
2022-11-11T01:54:42.877Z,7.77
2022-11-11T01:57:24.556Z,8.31
2022-11-11T02:00:00.592Z,8.44
2022-11-11T02:02:35.744Z,8.43
2022-11-11T02:05:23.003Z,8.17
2022-11-11T02:07:50.026Z,8.44
2022-11-11T02:10:23.528Z,6.81
2022-11-11T02:13:08.423Z,8.22
2022-11-11T02:15:36.313Z,8.30
2022-11-11T02:18:03.317Z,8.47
2022-11-11T02:20:35.835Z,8.45
2022-11-11T02:23:09.330Z,8.32
2022-11-11T02:25:39.305Z,8.16
2022-11-11T02:28:08.140Z,7.77
2022-11-11T02:30:34.946Z,8.28
2022-11-11T02:33:01.409Z,8.33
2022-11-11T02:35:32.490Z,8.37
2022-11-11T02:37:59.413Z,8.34
2022-11-11T02:40:35.101Z,8.37
2022-11-11T02:43:01.939Z,7.33
2022-11-11T02:45:28.745Z,8.19
2022-11-11T02:47:55.336Z,8.27
2022-11-11T02:50:21.914Z,8.33
2022-11-11T02:52:48.486Z,8.33
2022-11-11T02:55:14.971Z,8.29
2022-11-11T02:57:41.707Z,8.28
2022-11-11T03:00:08.857Z,8.27
2022-11-11T03:02:35.642Z,8.28
2022-11-11T03:05:02.113Z,8.31
2022-11-11T03:07:28.785Z,8.21
2022-11-11T03:09:55.358Z,8.25
2022-11-11T03:12:22.403Z,8.32
2022-11-11T03:14:48.948Z,7.88
2022-11-11T03:17:33.998Z,8.24
2022-11-11T03:20:20.399Z,6.20
2022-11-11T03:22:59.960Z,7.47
2022-11-11T03:25:38.751Z,6.84
2022-11-11T03:28:06.082Z,7.84
2022-11-11T03:30:32.888Z,8.12
2022-11-11T03:33:03.249Z,6.58
2022-11-11T03:35:30.262Z,4.39
2022-11-11T03:38:15.365Z,6.12
2022-11-11T03:40:46.204Z,7.61
2022-11-11T03:43:14.099Z,7.78
2022-11-11T03:45:41.300Z,7.92
2022-11-11T03:48:07.815Z,7.85
2022-11-11T03:50:34.777Z,7.92
2022-11-11T03:53:01.543Z,7.96
2022-11-11T03:55:28.573Z,7.92
2022-11-11T03:57:55.148Z,7.95
2022-11-11T04:00:24.266Z,7.90
2022-11-11T04:03:09.970Z,8.01
2022-11-11T04:06:11.594Z,7.80
2022-11-11T04:08:56.648Z,7.89
2022-11-11T04:11:29.113Z,7.94
2022-11-11T04:14:21.218Z,7.91
2022-11-11T04:16:47.793Z,7.91
2022-11-11T04:19:32.829Z,7.90
2022-11-11T04:21:59.431Z,7.90
2022-11-11T04:24:44.486Z,7.30
2022-11-11T04:27:13.607Z,7.82
2022-11-11T04:29:40.265Z,7.87
2022-11-11T04:32:30.625Z,7.82
2022-11-11T04:35:02.165Z,7.34
2022-11-11T04:37:32.343Z,7.73
2022-11-11T04:40:17.606Z,6.74
2022-11-11T04:42:44.020Z,7.02
2022-11-11T04:45:31.158Z,6.37
2022-11-11T04:48:00.834Z,7.52
2022-11-11T04:50:33.632Z,7.57
2022-11-11T04:53:00.888Z,7.73
2022-11-11T04:55:46.665Z,7.71
2022-11-11T04:58:13.632Z,7.72
2022-11-11T05:00:40.103Z,7.71
2022-11-11T05:03:15.843Z,7.69
2022-11-11T05:06:12.192Z,7.57
2022-11-11T05:09:01.662Z,7.68
2022-11-11T05:11:31.367Z,6.58
2022-11-11T05:14:17.420Z,7.32
2022-11-11T05:17:07.704Z,7.57
2022-11-11T05:19:53.018Z,4.47
2022-11-11T05:22:23.808Z,6.59
2022-11-11T05:25:09.221Z,7.35
2022-11-11T05:27:35.704Z,7.49
2022-11-11T05:30:02.824Z,7.43
2022-11-11T05:32:29.273Z,7.55
2022-11-11T05:34:55.720Z,7.48
2022-11-11T05:37:22.366Z,7.52
2022-11-11T05:39:48.766Z,5.43
2022-11-11T05:42:15.670Z,7.22
2022-11-11T05:44:42.129Z,6.96
2022-11-11T05:47:08.599Z,7.42
2022-11-11T05:49:35.025Z,7.34
2022-11-11T05:52:01.783Z,7.48
2022-11-11T05:54:28.193Z,7.38
2022-11-11T05:56:54.658Z,7.47
2022-11-11T05:59:21.103Z,7.46
2022-11-11T06:01:47.525Z,7.46
2022-11-11T06:04:18.153Z,7.40
2022-11-11T06:06:45.028Z,7.46
2022-11-11T06:09:11.459Z,5.28
2022-11-11T06:11:37.893Z,6.50
2022-11-11T06:14:04.820Z,7.13
2022-11-11T06:16:31.272Z,7.26
2022-11-11T06:18:57.812Z,4.32
2022-11-11T06:21:24.765Z,5.27
2022-11-11T06:23:51.167Z,6.64
2022-11-11T06:26:17.898Z,5.64
2022-11-11T06:28:48.443Z,6.96
2022-11-11T06:31:18.336Z,1.66
2022-11-11T06:33:44.787Z,6.22
2022-11-11T06:36:14.377Z,6.75
2022-11-11T06:38:42.076Z,7.04
2022-11-11T06:41:10.179Z,6.78
2022-11-11T06:43:36.668Z,5.62
2022-11-11T06:46:03.087Z,6.76
2022-11-11T06:48:29.564Z,7.00
2022-11-11T06:51:02.607Z,7.10
2022-11-11T06:53:30.478Z,7.09
2022-11-11T06:55:57.739Z,7.12
2022-11-11T06:58:25.006Z,7.06
2022-11-11T07:00:51.806Z,7.11
2022-11-11T07:03:25.304Z,7.14
2022-11-11T07:05:58.533Z,6.03
2022-11-11T07:08:26.572Z,5.87
2022-11-11T07:10:53.358Z,6.81
2022-11-11T07:13:19.891Z,6.91
2022-11-11T07:15:46.461Z,6.99
2022-11-11T07:18:12.922Z,7.07
2022-11-11T07:20:39.934Z,7.01
2022-11-11T07:23:07.069Z,6.19
2022-11-11T07:25:34.223Z,7.00
2022-11-11T07:28:00.904Z,7.13
2022-11-11T07:30:27.448Z,7.09
2022-11-11T07:32:55.005Z,7.11
2022-11-11T07:35:22.764Z,7.10
2022-11-11T07:37:49.572Z,7.15
2022-11-11T07:40:17.990Z,6.18
2022-11-11T07:42:44.822Z,6.07
2022-11-11T07:45:13.319Z,6.82
2022-11-11T07:47:42.133Z,7.00
2022-11-11T07:50:08.932Z,6.81
2022-11-11T07:52:37.239Z,6.83
2022-11-11T07:55:08.327Z,6.67
2022-11-11T07:57:35.076Z,6.84
2022-11-11T08:00:01.564Z,6.60
2022-11-11T08:02:27.963Z,6.94
2022-11-11T08:04:55.942Z,6.84
2022-11-11T08:07:24.080Z,6.70
2022-11-11T08:09:51.508Z,7.00
2022-11-11T08:12:36.995Z,6.63
2022-11-11T08:15:06.913Z,6.97
2022-11-11T08:17:38.494Z,7.03
2022-11-11T08:20:06.773Z,6.67
2022-11-11T08:22:41.131Z,6.62
2022-11-11T08:25:10.760Z,6.96
2022-11-11T08:27:37.921Z,6.83
2022-11-11T08:30:05.915Z,6.77
2022-11-11T08:32:32.596Z,6.90
2022-11-11T08:34:59.032Z,6.99
2022-11-11T08:37:25.525Z,7.03
2022-11-11T08:39:54.528Z,6.95
2022-11-11T08:42:20.935Z,7.10
2022-11-11T08:44:47.352Z,7.08
2022-11-11T08:47:13.992Z,7.34
2022-11-11T08:49:40.451Z,7.28
2022-11-11T08:52:06.899Z,7.55
2022-11-11T08:54:33.785Z,7.51
2022-11-11T08:57:00.270Z,7.63
2022-11-11T08:59:26.690Z,7.59
2022-11-11T09:01:53.110Z,7.28
2022-11-11T09:07:08.040Z,7.24
2022-11-11T09:09:35.148Z,7.76
2022-11-11T09:12:01.985Z,7.80
2022-11-11T09:14:28.565Z,8.69
2022-11-11T09:16:54.972Z,8.66
2022-11-11T09:19:21.434Z,8.19
2022-11-11T09:21:47.957Z,7.47
2022-11-11T09:24:14.353Z,7.30
2022-11-11T09:26:40.765Z,8.18
2022-11-11T09:29:07.232Z,8.07
2022-11-11T09:31:48.869Z,8.79
2022-11-11T09:34:15.372Z,8.54
2022-11-11T09:36:42.800Z,9.05
2022-11-11T09:39:09.220Z,8.78
2022-11-11T09:42:16.849Z,9.12
2022-11-11T09:45:10.633Z,8.69
2022-11-11T09:47:59.683Z,8.44
2022-11-11T09:50:32.094Z,8.67
2022-11-11T09:53:14.658Z,7.78
2022-11-11T09:55:47.546Z,8.99
2022-11-11T09:58:28.386Z,11.50
2022-11-11T10:01:07.169Z,11.70
2022-11-11T10:03:41.158Z,11.30
2022-11-11T10:06:23.727Z,13.16
2022-11-11T10:09:02.550Z,13.92
2022-11-11T10:11:53.005Z,15.06
2022-11-11T10:14:19.758Z,13.91
2022-11-11T10:17:05.727Z,14.40
2022-11-11T10:19:55.474Z,13.93
2022-11-11T10:22:35.014Z,13.01
2022-11-11T10:25:13.548Z,12.98
2022-11-11T10:27:45.545Z,14.07
2022-11-11T10:30:25.890Z,14.31
2022-11-11T10:33:00.196Z,14.73
2022-11-11T10:35:29.048Z,13.77
2022-11-11T10:38:10.452Z,12.85
2022-11-11T10:40:50.178Z,14.54
2022-11-11T10:43:21.098Z,15.54
2022-11-11T10:45:54.648Z,14.35
2022-11-11T10:48:32.049Z,14.23
2022-11-11T10:51:02.790Z,13.53
2022-11-11T10:54:06.819Z,11.18
2022-11-11T10:56:48.331Z,9.87
2022-11-11T10:59:24.288Z,9.79
2022-11-11T11:02:08.939Z,9.49
2022-11-11T11:04:50.324Z,9.90
2022-11-11T11:07:44.146Z,9.17
2022-11-11T11:10:34.086Z,9.62
2022-11-11T11:13:17.836Z,10.20
2022-11-11T11:15:50.502Z,9.99
2022-11-11T11:18:18.968Z,10.64
2022-11-11T11:21:03.200Z,10.80
2022-11-11T11:23:46.534Z,10.66
2022-11-11T11:26:15.147Z,10.41
2022-11-11T11:28:56.737Z,11.51
2022-11-11T11:31:37.377Z,11.22
2022-11-11T11:34:04.261Z,11.03
2022-11-11T11:36:30.831Z,11.29
2022-11-11T11:38:57.236Z,10.63
2022-11-11T11:41:43.689Z,9.54
2022-11-11T11:44:31.687Z,9.78
2022-11-11T11:47:10.040Z,10.29
2022-11-11T11:49:57.102Z,10.23
2022-11-11T11:52:32.877Z,9.31
2022-11-11T11:55:12.978Z,10.07
2022-11-11T11:58:01.886Z,10.55
2022-11-11T12:00:30.662Z,10.16
2022-11-11T12:02:59.790Z,10.63
2022-11-11T12:05:31.855Z,10.73
2022-11-11T12:08:10.434Z,10.56
2022-11-11T12:10:45.896Z,10.90
2022-11-11T12:13:44.195Z,10.24
2022-11-11T12:16:26.136Z,10.67
2022-11-11T12:19:14.333Z,11.05
2022-11-11T12:22:22.359Z,11.18
2022-11-11T12:25:26.292Z,11.34
2022-11-11T12:28:14.090Z,11.15
2022-11-11T12:30:48.147Z,11.01
2022-11-11T12:33:33.576Z,11.35
2022-11-11T12:36:37.331Z,11.50
2022-11-11T12:39:25.134Z,10.65
2022-11-11T12:42:28.408Z,9.54
2022-11-11T12:45:16.613Z,10.49
2022-11-11T12:48:03.619Z,11.19
2022-11-11T12:51:05.454Z,10.86
2022-11-11T12:54:13.779Z,11.23
2022-11-11T12:56:58.205Z,11.58
2022-11-11T12:59:24.574Z,11.43
2022-11-11T13:02:20.729Z,11.46
2022-11-11T13:04:47.101Z,11.40
2022-11-11T13:07:33.546Z,11.56
2022-11-11T13:10:12.496Z,11.51
2022-11-11T13:13:05.123Z,11.50
2022-11-11T13:15:31.517Z,11.36
2022-11-11T13:18:02.359Z,11.32
2022-11-11T13:21:04.315Z,11.35
2022-11-11T13:23:31.201Z,10.33
2022-11-11T13:26:03.920Z,9.85
2022-11-11T13:28:46.932Z,9.92
2022-11-11T13:31:37.302Z,10.02
2022-11-11T13:34:09.518Z,9.65
2022-11-11T13:36:56.779Z,9.49
2022-11-11T13:39:32.429Z,9.51
2022-11-11T13:42:00.007Z,9.53
2022-11-11T13:45:00.982Z,10.33
2022-11-11T13:47:34.073Z,9.85
2022-11-11T13:50:39.938Z,9.75
2022-11-11T13:53:13.217Z,9.63
2022-11-11T13:55:44.949Z,10.65
2022-11-11T13:58:24.882Z,10.08
2022-11-11T14:01:07.548Z,9.85
2022-11-11T14:03:36.548Z,9.57
2022-11-11T14:06:14.983Z,9.48
2022-11-11T14:08:47.464Z,9.46
2022-11-11T14:11:26.328Z,9.46
2022-11-11T14:13:53.958Z,9.46
2022-11-11T14:16:35.742Z,9.47
2022-11-11T14:19:28.883Z,9.43
2022-11-11T14:21:59.805Z,9.33
2022-11-11T14:24:41.723Z,9.49
2022-11-11T14:27:08.083Z,9.45
2022-11-11T14:29:38.668Z,9.56
2022-11-11T14:32:13.968Z,9.51
2022-11-11T14:34:52.020Z,9.44
2022-11-11T14:37:21.226Z,9.46
2022-11-11T14:39:54.049Z,9.42
2022-11-11T14:42:35.669Z,9.38
2022-11-11T14:45:04.054Z,9.36
2022-11-11T14:47:30.447Z,9.33
2022-11-11T14:49:59.181Z,9.38
2022-11-11T14:52:41.537Z,9.37
2022-11-11T14:55:29.418Z,9.41
2022-11-11T14:58:01.906Z,9.35
2022-11-11T15:00:31.843Z,9.37
2022-11-11T15:03:27.679Z,9.37
2022-11-11T15:06:16.722Z,9.47
2022-11-11T15:09:11.207Z,9.27
2022-11-11T15:12:06.888Z,9.37
2022-11-11T15:14:50.866Z,9.35
2022-11-11T15:17:17.265Z,9.36
2022-11-11T15:20:02.015Z,9.39
2022-11-11T15:22:37.438Z,9.42
2022-11-11T15:25:41.402Z,9.43
2022-11-11T15:28:37.885Z,9.31
2022-11-11T15:31:16.591Z,9.25
2022-11-11T15:33:53.705Z,9.32
2022-11-11T15:36:40.588Z,9.32
2022-11-11T15:39:12.506Z,9.33
2022-11-11T15:41:43.336Z,9.30
2022-11-11T15:44:19.557Z,9.31
2022-11-11T15:46:46.626Z,9.31
2022-11-11T15:49:15.251Z,9.37
2022-11-11T15:51:41.726Z,9.45
2022-11-11T15:54:20.062Z,9.32
2022-11-11T15:56:46.489Z,9.31
2022-11-11T15:59:23.829Z,9.30
2022-11-11T16:01:52.288Z,9.18
2022-11-11T16:04:53.911Z,9.29
2022-11-11T16:07:19.087Z,9.36
2022-11-11T16:09:45.672Z,9.31
2022-11-11T16:12:13.738Z,9.30
2022-11-11T16:14:44.699Z,9.27
2022-11-11T16:17:13.904Z,9.25
2022-11-11T16:19:48.832Z,9.23
2022-11-11T16:22:26.311Z,9.26
2022-11-11T16:24:53.601Z,9.26
2022-11-11T16:27:25.088Z,9.26
2022-11-11T16:29:51.570Z,9.29
2022-11-11T16:32:23.986Z,9.25
2022-11-11T16:34:52.841Z,9.17
2022-11-11T16:37:20.429Z,9.26
2022-11-11T16:39:47.408Z,9.24
2022-11-11T16:42:25.862Z,9.16
2022-11-11T16:44:59.828Z,9.25
2022-11-11T16:47:32.589Z,9.21
2022-11-11T16:50:19.281Z,8.76
2022-11-11T16:53:00.999Z,9.13
2022-11-11T16:55:32.627Z,9.15
2022-11-11T16:58:02.611Z,9.20
2022-11-11T17:00:29.946Z,9.20
2022-11-11T17:03:18.046Z,9.27
2022-11-11T17:05:58.062Z,9.19
2022-11-11T17:08:37.110Z,9.28
2022-11-11T17:11:05.952Z,9.20
2022-11-11T17:13:42.077Z,9.18
2022-11-11T17:16:09.619Z,9.13
2022-11-11T17:18:38.499Z,9.18
2022-11-11T17:21:05.304Z,9.19
2022-11-11T17:23:32.399Z,9.08
2022-11-11T17:26:01.084Z,9.18
2022-11-11T17:28:31.442Z,9.16
2022-11-11T17:30:57.858Z,9.17
2022-11-11T17:33:27.760Z,9.18
2022-11-11T17:35:54.454Z,9.19
2022-11-11T17:38:21.092Z,9.16
2022-11-11T17:40:48.537Z,9.23
2022-11-11T17:43:15.899Z,9.22
2022-11-11T17:45:42.435Z,9.24
2022-11-11T17:48:10.329Z,8.40
2022-11-11T17:50:38.475Z,8.61
2022-11-11T17:53:06.464Z,8.97
2022-11-11T17:55:33.728Z,9.15
2022-11-11T17:58:00.688Z,8.40
2022-11-11T18:00:27.878Z,8.96
2022-11-11T18:02:54.586Z,9.07
2022-11-11T18:05:21.047Z,9.12
2022-11-11T18:07:47.479Z,7.05
2022-11-11T18:10:14.509Z,8.78
2022-11-11T18:12:41.745Z,8.91
2022-11-11T18:15:09.261Z,7.90
2022-11-11T18:17:35.712Z,8.53
2022-11-11T18:20:02.130Z,8.79
2022-11-11T18:22:28.628Z,8.96
2022-11-11T18:24:55.089Z,8.98
2022-11-11T18:27:21.499Z,8.97
2022-11-11T18:29:47.901Z,8.92
2022-11-11T18:32:14.457Z,8.94
2022-11-11T18:34:40.879Z,8.86
2022-11-11T18:37:07.323Z,8.95
2022-11-11T18:39:33.721Z,8.95
2022-11-11T18:42:00.207Z,8.18
2022-11-11T18:44:26.678Z,8.80
2022-11-11T18:46:53.975Z,8.83
2022-11-11T18:49:20.668Z,8.92
2022-11-11T18:51:47.453Z,8.97
2022-11-11T18:54:13.873Z,9.06
2022-11-11T18:56:40.410Z,7.67
2022-11-11T18:59:06.803Z,8.65
2022-11-11T19:01:37.370Z,8.83
2022-11-11T19:04:06.266Z,7.08
2022-11-11T19:06:35.578Z,8.56
2022-11-11T19:09:07.940Z,8.81
2022-11-11T19:11:36.899Z,8.84
2022-11-11T19:14:05.266Z,8.83
2022-11-11T19:16:32.678Z,8.78
2022-11-11T19:19:00.050Z,6.71
2022-11-11T19:21:28.372Z,8.37
2022-11-11T19:23:56.497Z,8.03
2022-11-11T19:26:26.142Z,7.82
2022-11-11T19:28:52.951Z,8.29
2022-11-11T19:31:22.199Z,8.49
2022-11-11T19:33:54.153Z,8.57
2022-11-11T19:36:24.652Z,8.70
2022-11-11T19:38:51.400Z,8.73
2022-11-11T19:41:20.764Z,6.24
2022-11-11T19:43:49.757Z,6.58
2022-11-11T19:46:18.458Z,8.02
2022-11-11T19:48:46.326Z,8.45
2022-11-11T19:51:15.785Z,8.54
2022-11-11T19:53:44.970Z,8.54
2022-11-11T19:56:13.799Z,8.63
2022-11-11T19:58:41.195Z,8.64
2022-11-11T20:01:16.427Z,8.65
2022-11-11T20:03:43.667Z,7.95
2022-11-11T20:06:26.720Z,8.44
2022-11-11T20:08:54.781Z,8.66
2022-11-11T20:11:21.585Z,8.68
2022-11-11T20:13:48.865Z,8.32
2022-11-11T20:16:16.174Z,6.63
2022-11-11T20:18:42.745Z,7.63
2022-11-11T20:21:09.402Z,8.14
2022-11-11T20:23:37.973Z,8.13
2022-11-11T20:26:06.867Z,8.49
2022-11-11T20:28:33.363Z,7.42
2022-11-11T20:31:05.801Z,8.40
2022-11-11T20:33:32.286Z,8.51
2022-11-11T20:36:08.014Z,8.47
2022-11-11T20:38:34.920Z,8.55
2022-11-11T20:41:06.826Z,8.58
2022-11-11T20:43:35.306Z,8.49
2022-11-11T20:46:06.916Z,8.52
2022-11-11T20:48:34.506Z,8.57
2022-11-11T20:51:22.429Z,8.58
2022-11-11T20:53:56.540Z,8.53
2022-11-11T20:56:24.745Z,8.50
2022-11-11T20:58:55.270Z,8.56
2022-11-11T21:01:25.422Z,8.53
2022-11-11T21:03:57.248Z,8.56
2022-11-11T21:06:24.632Z,8.45
2022-11-11T21:08:52.305Z,8.43
2022-11-11T21:11:20.877Z,8.48
2022-11-11T21:13:47.983Z,8.50
2022-11-11T21:16:19.968Z,8.52
2022-11-11T21:18:47.587Z,8.49
2022-11-11T21:21:31.779Z,8.38
2022-11-11T21:24:06.894Z,8.47
2022-11-11T21:26:35.274Z,8.49
2022-11-11T21:29:02.061Z,8.51
2022-11-11T21:31:31.399Z,5.85
2022-11-11T21:34:03.463Z,7.98
2022-11-11T21:36:32.775Z,7.08
2022-11-11T21:39:03.810Z,8.10
2022-11-11T21:41:32.252Z,8.11
2022-11-11T21:43:59.494Z,8.26
2022-11-11T21:46:27.351Z,8.39
2022-11-11T21:48:54.809Z,8.34
2022-11-11T21:51:26.834Z,8.37
2022-11-11T21:54:01.938Z,8.25
2022-11-11T21:56:31.201Z,8.36
2022-11-11T21:58:59.774Z,8.34
2022-11-11T22:01:33.871Z,8.08
2022-11-11T22:04:08.734Z,8.32
2022-11-11T22:06:35.488Z,8.31
2022-11-11T22:09:03.407Z,8.35
2022-11-11T22:11:32.192Z,8.31
2022-11-11T22:14:01.075Z,5.85
2022-11-11T22:16:35.668Z,4.76
2022-11-11T22:19:05.605Z,7.07
2022-11-11T22:21:33.398Z,7.93
2022-11-11T22:24:02.505Z,7.15
2022-11-11T22:26:34.724Z,7.94
2022-11-11T22:29:01.661Z,8.14
2022-11-11T22:31:30.579Z,8.15
2022-11-11T22:34:02.322Z,4.76
2022-11-11T22:36:31.470Z,6.80
2022-11-11T22:38:58.876Z,7.76
2022-11-11T22:41:28.257Z,8.01
2022-11-11T22:44:02.117Z,7.24
2022-11-11T22:46:31.491Z,7.96
2022-11-11T22:49:05.257Z,7.60
2022-11-11T22:51:33.284Z,5.46
2022-11-11T22:54:02.152Z,6.47
2022-11-11T22:56:29.216Z,6.59
2022-11-11T22:58:57.591Z,7.76
2022-11-11T23:01:29.966Z,7.91
2022-11-11T23:04:00.045Z,7.93
2022-11-11T23:06:32.496Z,7.90
2022-11-11T23:08:59.430Z,7.91
2022-11-11T23:11:28.696Z,7.90
2022-11-11T23:14:04.157Z,7.88
2022-11-11T23:16:31.195Z,7.99
2022-11-11T23:18:58.810Z,7.96
2022-11-11T23:21:27.050Z,8.00
2022-11-11T23:23:54.471Z,7.93
2022-11-11T23:26:27.573Z,8.04
2022-11-11T23:28:54.754Z,7.95
2022-11-11T23:31:27.465Z,7.86
2022-11-11T23:33:56.023Z,7.86
2022-11-11T23:36:27.303Z,6.59
2022-11-11T23:38:53.865Z,7.69
2022-11-11T23:41:20.610Z,7.76
2022-11-11T23:43:47.059Z,7.85
2022-11-11T23:46:13.746Z,7.88
2022-11-11T23:48:40.258Z,5.12
2022-11-11T23:51:07.282Z,7.22
2022-11-11T23:53:35.003Z,7.54
2022-11-11T23:56:02.521Z,7.75
2022-11-11T23:58:29.468Z,7.69
